Time;durP1;ratioP1;P1;durP2;ratioP2;P2;SDS_P1;SDS_P2;PMS_P1;PMS_P2;Temp;Humidity;BMP_temperature;BMP_pressure;BME280_temperature;BME280_humidity;BME280_pressure;Samples;Min_cycle;Max_cycle;Signal;HPM_P1;HPM_P2
2024/01/27 00:00:26;;;;;;;;;;;3.00;99.90;;;;;;5013503;28;19993;-70
2024/01/27 00:02:52;;;;;;;;;;;2.90;99.90;;;;;;5020714;28;19921;-71
2024/01/27 00:05:19;;;;;;;;;;;2.80;99.90;;;;;;5018040;28;19922;-70
2024/01/27 00:07:47;;;;;;;;;;;2.70;99.90;;;;;;5006793;28;19981;-69
2024/01/27 00:10:14;;;;;;;;;;;2.70;99.90;;;;;;5007395;28;20235;-70
2024/01/27 00:12:41;;;;;;;;;;;2.70;99.90;;;;;;5007998;28;19988;-70
2024/01/27 00:15:08;;;;;;;;;;;2.80;99.90;;;;;;5007357;28;19928;-71
2024/01/27 00:17:35;;;;;;;;;;;2.70;99.90;;;;;;5008085;28;19922;-71
2024/01/27 00:20:02;;;;;;;;;;;2.70;99.90;;;;;;5006935;28;19928;-69
2024/01/27 00:22:29;;;;;;;;;;;2.70;99.90;;;;;;5008146;28;19968;-71
2024/01/27 00:24:57;;;;;;;;;;;2.70;99.90;;;;;;5006797;28;19961;-71
2024/01/27 00:27:23;;;;;;;;;;;2.60;99.90;;;;;;5008004;28;19989;-70
2024/01/27 00:29:50;;;;;;;;;;;2.60;99.90;;;;;;5007146;28;19928;-69
2024/01/27 00:32:17;;;;;;;;;;;2.60;99.90;;;;;;5006874;28;20262;-70
2024/01/27 00:34:43;;;;;;;;;;;2.60;99.90;;;;;;5014624;28;19944;-71
2024/01/27 00:37:10;;;;;;;;;;;2.60;99.90;;;;;;5007094;28;19921;-70
2024/01/27 00:39:36;;;;;;;;;;;2.60;99.90;;;;;;5007678;28;19992;-70
2024/01/27 00:42:05;;;;;;;;;;;2.60;99.90;;;;;;5006483;28;19964;-70
2024/01/27 00:44:31;;;;;;;;;;;2.50;99.90;;;;;;5007377;28;19922;-72
2024/01/27 00:46:58;;;;;;;;;;;2.50;99.90;;;;;;5006739;28;20275;-70
2024/01/27 00:49:24;;;;;;;;;;;2.50;99.90;;;;;;5007477;28;20155;-71
2024/01/27 00:51:51;;;;;;;;;;;2.50;99.90;;;;;;5016745;28;19928;-69
2024/01/27 00:54:18;;;;;;;;;;;2.50;99.90;;;;;;5016644;28;19929;-71
2024/01/27 00:56:44;;;;;;;;;;;2.50;99.90;;;;;;5006766;28;20009;-71
2024/01/27 00:59:12;;;;;;;;;;;2.40;99.90;;;;;;5012973;28;19921;-70
2024/01/27 01:01:39;;;;;;;;;;;2.50;99.90;;;;;;5007274;28;19977;-70
2024/01/27 01:04:05;;;;;;;;;;;2.40;99.90;;;;;;5006320;28;19921;-71
2024/01/27 01:06:32;;;;;;;;;;;2.30;99.90;;;;;;5006802;28;20118;-70
2024/01/27 01:08:59;;;;;;;;;;;2.30;99.90;;;;;;5006593;28;19984;-70
2024/01/27 01:11:25;;;;;;;;;;;2.40;99.90;;;;;;5019896;28;20250;-71
2024/01/27 01:13:52;;;;;;;;;;;2.30;99.90;;;;;;5023645;28;19921;-71
2024/01/27 01:16:20;;;;;;;;;;;2.40;99.90;;;;;;5021992;28;20257;-70
2024/01/27 01:18:46;;;;;;;;;;;2.30;99.90;;;;;;5021710;28;19925;-70
2024/01/27 01:21:13;;;;;;;;;;;2.30;99.90;;;;;;5010011;28;19921;-71
2024/01/27 01:23:40;;;;;;;;;;;2.20;99.90;;;;;;5006994;28;19956;-69
2024/01/27 01:26:07;;;;;;;;;;;2.20;99.90;;;;;;5005806;28;19965;-71
2024/01/27 01:28:34;;;;;;;;;;;2.10;99.90;;;;;;5014907;28;19921;-70
2024/01/27 01:31:01;;;;;;;;;;;2.10;99.90;;;;;;5011200;28;19922;-70
2024/01/27 01:33:29;;;;;;;;;;;2.00;99.90;;;;;;5022142;28;19929;-70
2024/01/27 01:35:55;;;;;;;;;;;2.00;99.90;;;;;;5023918;28;19957;-71
2024/01/27 01:38:22;;;;;;;;;;;2.00;99.90;;;;;;5016220;28;20229;-70
2024/01/27 01:40:49;;;;;;;;;;;2.00;99.90;;;;;;5015588;28;19989;-69
2024/01/27 01:43:15;;;;;;;;;;;1.90;99.90;;;;;;5022045;28;20313;-70
2024/01/27 01:45:42;;;;;;;;;;;1.90;99.90;;;;;;5008688;28;19935;-70
2024/01/27 01:48:08;;;;;;;;;;;1.90;99.90;;;;;;5023408;28;19921;-70
2024/01/27 01:50:36;;;;;;;;;;;1.90;99.90;;;;;;5023204;28;20154;-70
2024/01/27 01:53:04;;;;;;;;;;;1.80;99.90;;;;;;5010616;28;19922;-70
2024/01/27 01:55:30;;;;;;;;;;;1.90;99.90;;;;;;5006480;28;19989;-70
2024/01/27 01:57:57;;;;;;;;;;;1.80;99.90;;;;;;5012716;28;20298;-70
2024/01/27 02:00:24;;;;;;;;;;;1.90;99.90;;;;;;5013786;28;19989;-70
2024/01/27 02:02:50;;;;;;;;;;;1.80;99.90;;;;;;5008778;28;19921;-70
2024/01/27 02:05:17;;;;;;;;;;;1.80;99.90;;;;;;5021792;28;19993;-71
2024/01/27 02:07:45;;;;;;;;;;;1.90;99.90;;;;;;5021653;28;20123;-71
2024/01/27 02:10:14;;;;;;;;;;;1.90;99.90;;;;;;5015698;28;19953;-70
2024/01/27 02:12:41;;;;;;;;;;;1.80;99.90;;;;;;5021257;28;19993;-72
2024/01/27 02:15:10;;;;;;;;;;;1.90;99.90;;;;;;5021766;28;19949;-70
2024/01/27 02:17:36;;;;;;;;;;;1.80;99.90;;;;;;5020651;28;19997;-72
2024/01/27 02:20:04;;;;;;;;;;;1.80;99.90;;;;;;5021831;28;19929;-72
2024/01/27 02:22:30;;;;;;;;;;;1.80;99.90;;;;;;5020952;28;20001;-70
2024/01/27 02:24:58;;;;;;;;;;;1.80;99.90;;;;;;5010452;28;19984;-71
2024/01/27 02:27:25;;;;;;;;;;;1.80;99.90;;;;;;5006207;28;19956;-71
2024/01/27 02:29:52;;;;;;;;;;;1.80;99.90;;;;;;5017148;28;19921;-72
2024/01/27 02:32:18;;;;;;;;;;;1.80;99.90;;;;;;5012401;28;20196;-70
2024/01/27 02:34:45;;;;;;;;;;;1.80;99.90;;;;;;5012267;28;19952;-71
2024/01/27 02:37:11;;;;;;;;;;;1.80;99.90;;;;;;5012449;28;19928;-73
2024/01/27 02:39:40;;;;;;;;;;;1.80;99.90;;;;;;5024180;28;19921;-71
2024/01/27 02:42:08;;;;;;;;;;;1.80;99.90;;;;;;5014010;28;19921;-71
2024/01/27 02:44:34;;;;;;;;;;;1.70;99.90;;;;;;5024184;28;19952;-70
2024/01/27 02:47:01;;;;;;;;;;;1.70;99.90;;;;;;5014299;28;19928;-71
2024/01/27 02:49:27;;;;;;;;;;;1.60;99.90;;;;;;5009915;28;19921;-72
2024/01/27 02:51:54;;;;;;;;;;;1.60;99.90;;;;;;5019664;28;19988;-71
2024/01/27 02:54:21;;;;;;;;;;;1.60;99.90;;;;;;5019634;28;19992;-72
2024/01/27 02:56:47;;;;;;;;;;;1.60;99.90;;;;;;5024801;28;20206;-70
2024/01/27 02:59:15;;;;;;;;;;;1.60;99.90;;;;;;5026152;28;19929;-70
2024/01/27 03:01:42;;;;;;;;;;;1.60;99.90;;;;;;5025337;28;19957;-72
2024/01/27 03:04:09;;;;;;;;;;;1.70;99.90;;;;;;5025330;28;20005;-70
2024/01/27 03:06:35;;;;;;;;;;;1.70;99.90;;;;;;5020289;28;19993;-72
2024/01/27 03:09:02;;;;;;;;;;;1.70;99.90;;;;;;5021534;28;20254;-70
2024/01/27 03:11:29;;;;;;;;;;;1.80;99.90;;;;;;5016862;28;20162;-71
2024/01/27 03:13:56;;;;;;;;;;;1.80;99.90;;;;;;5020518;28;19993;-70
2024/01/27 03:16:24;;;;;;;;;;;1.80;99.90;;;;;;5026421;28;19959;-70
2024/01/27 03:18:50;;;;;;;;;;;1.80;99.90;;;;;;5025530;28;19953;-70
2024/01/27 03:21:17;;;;;;;;;;;1.70;99.90;;;;;;5011835;28;19921;-72
2024/01/27 03:23:44;;;;;;;;;;;1.70;99.90;;;;;;5008859;28;19992;-72
2024/01/27 03:26:10;;;;;;;;;;;1.70;99.90;;;;;;5013822;28;20226;-71
2024/01/27 03:28:37;;;;;;;;;;;1.70;99.90;;;;;;5023863;28;19929;-71
2024/01/27 03:31:03;;;;;;;;;;;1.60;99.90;;;;;;5024536;28;19928;-70
2024/01/27 03:33:31;;;;;;;;;;;1.60;99.90;;;;;;5023599;28;19992;-71
2024/01/27 03:35:58;;;;;;;;;;;1.60;99.90;;;;;;5024508;28;19957;-72
2024/01/27 03:38:25;;;;;;;;;;;1.60;99.90;;;;;;5023260;28;20236;-70
2024/01/27 03:40:51;;;;;;;;;;;1.50;99.90;;;;;;5014684;28;19989;-72
2024/01/27 03:43:18;;;;;;;;;;;1.50;99.90;;;;;;5007505;28;19922;-70
2024/01/27 03:45:45;;;;;;;;;;;1.50;99.90;;;;;;5007994;28;19922;-71
2024/01/27 03:48:11;;;;;;;;;;;1.50;99.90;;;;;;5007964;28;19922;-71
2024/01/27 03:50:39;;;;;;;;;;;1.40;99.90;;;;;;5008730;28;20174;-71
2024/01/27 03:53:06;;;;;;;;;;;1.40;99.90;;;;;;5007895;28;19953;-72
2024/01/27 03:55:34;;;;;;;;;;;1.40;99.90;;;;;;5008500;28;19985;-70
2024/01/27 03:58:01;;;;;;;;;;;1.30;99.90;;;;;;5007499;28;20270;-70
2024/01/27 04:00:29;;;;;;;;;;;1.30;99.90;;;;;;5008096;28;20215;-71
2024/01/27 04:02:56;;;;;;;;;;;1.20;99.90;;;;;;5007641;28;19922;-70
2024/01/27 04:05:22;;;;;;;;;;;1.20;99.90;;;;;;5015368;28;19928;-71
2024/01/27 04:07:51;;;;;;;;;;;1.20;99.90;;;;;;5007604;28;19921;-71
2024/01/27 04:10:17;;;;;;;;;;;1.20;99.90;;;;;;5007439;28;19925;-71
2024/01/27 04:12:44;;;;;;;;;;;1.20;99.90;;;;;;5007876;28;19921;-71
2024/01/27 04:15:11;;;;;;;;;;;1.20;99.90;;;;;;5014017;28;19928;-70
2024/01/27 04:17:37;;;;;;;;;;;1.20;99.90;;;;;;5014326;28;20016;-72
2024/01/27 04:20:05;;;;;;;;;;;1.10;99.90;;;;;;5007350;28;19953;-71
2024/01/27 04:22:31;;;;;;;;;;;1.10;99.90;;;;;;5008164;28;19949;-72
2024/01/27 04:24:59;;;;;;;;;;;1.10;99.90;;;;;;5018269;28;19927;-70
2024/01/27 04:27:27;;;;;;;;;;;1.10;99.90;;;;;;5010236;28;19960;-70
2024/01/27 04:29:54;;;;;;;;;;;1.10;99.90;;;;;;5006907;28;19989;-72
2024/01/27 04:32:22;;;;;;;;;;;1.00;99.90;;;;;;5013293;28;19984;-70
2024/01/27 04:34:49;;;;;;;;;;;1.00;99.90;;;;;;5007097;28;19921;-70
2024/01/27 04:37:15;;;;;;;;;;;1.00;99.90;;;;;;5007175;28;19993;-70
2024/01/27 04:39:42;;;;;;;;;;;0.90;99.90;;;;;;5022608;28;21084;-71
2024/01/27 04:42:10;;;;;;;;;;;0.80;99.90;;;;;;5022969;28;19930;-70
2024/01/27 04:44:40;;;;;;;;;;;0.80;99.90;;;;;;5022414;28;19957;-70
2024/01/27 04:47:07;;;;;;;;;;;0.80;99.90;;;;;;5023373;28;19953;-72
2024/01/27 04:49:33;;;;;;;;;;;0.70;99.90;;;;;;5008335;28;19993;-70
2024/01/27 04:52:00;;;;;;;;;;;0.80;99.90;;;;;;5007068;28;20062;-71
2024/01/27 04:54:26;;;;;;;;;;;0.70;99.90;;;;;;5008035;28;19921;-70
2024/01/27 04:56:53;;;;;;;;;;;0.70;99.90;;;;;;5024757;28;19953;-69
2024/01/27 04:59:21;;;;;;;;;;;0.60;99.90;;;;;;5023389;28;19988;-70
2024/01/27 05:01:48;;;;;;;;;;;0.60;99.90;;;;;;5023150;28;19992;-71
2024/01/27 05:04:14;;;;;;;;;;;0.60;99.90;;;;;;5022675;28;19953;-71
2024/01/27 05:06:44;;;;;;;;;;;0.60;99.90;;;;;;5021741;28;19981;-71
2024/01/27 05:09:10;;;;;;;;;;;0.70;99.90;;;;;;5022958;28;20154;-69
2024/01/27 05:11:37;;;;;;;;;;;0.60;99.90;;;;;;5022033;28;19981;-71
2024/01/27 05:14:04;;;;;;;;;;;0.50;99.90;;;;;;5022840;28;20096;-71
2024/01/27 05:16:33;;;;;;;;;;;0.50;99.90;;;;;;5021550;28;19921;-71
2024/01/27 05:19:00;;;;;;;;;;;0.40;99.90;;;;;;5016845;28;19921;-71
2024/01/27 05:21:26;;;;;;;;;;;0.30;99.90;;;;;;5022738;28;20004;-70
2024/01/27 05:23:53;;;;;;;;;;;0.30;99.90;;;;;;5022760;28;20173;-70
2024/01/27 05:26:19;;;;;;;;;;;0.30;99.90;;;;;;5021790;28;20233;-69
2024/01/27 05:28:46;;;;;;;;;;;0.30;99.90;;;;;;5020030;28;19960;-70
2024/01/27 05:31:13;;;;;;;;;;;0.30;99.90;;;;;;5006276;28;19953;-71
2024/01/27 05:33:41;;;;;;;;;;;0.30;99.90;;;;;;5006951;28;20016;-71
2024/01/27 05:36:07;;;;;;;;;;;0.30;99.90;;;;;;5005674;28;19989;-70
2024/01/27 05:38:34;;;;;;;;;;;0.30;99.90;;;;;;5006747;28;20404;-70
2024/01/27 05:41:01;;;;;;;;;;;0.40;99.90;;;;;;5005732;28;19933;-72
2024/01/27 05:43:28;;;;;;;;;;;0.40;99.90;;;;;;5006621;28;19993;-70
2024/01/27 05:45:55;;;;;;;;;;;0.40;99.90;;;;;;5017352;28;19956;-70
2024/01/27 05:48:21;;;;;;;;;;;0.50;99.90;;;;;;5022417;28;19984;-71
2024/01/27 05:50:57;;;;;;;;;;;0.50;99.90;;;;;;5022751;28;19988;-71
2024/01/27 05:53:23;;;;;;;;;;;0.50;99.90;;;;;;5022067;28;20227;-72
2024/01/27 05:55:50;;;;;;;;;;;0.50;99.90;;;;;;5022855;28;19928;-71
2024/01/27 05:58:17;;;;;;;;;;;0.50;99.90;;;;;;5022664;28;20211;-70
2024/01/27 06:00:43;;;;;;;;;;;0.60;99.90;;;;;;5021918;28;19988;-69
2024/01/27 06:03:10;;;;;;;;;;;0.50;99.90;;;;;;5016210;28;19922;-70
2024/01/27 06:05:37;;;;;;;;;;;0.50;99.90;;;;;;5020509;28;19997;-71
2024/01/27 06:08:05;;;;;;;;;;;0.50;99.90;;;;;;5022084;28;20049;-70
2024/01/27 06:10:32;;;;;;;;;;;0.50;99.90;;;;;;5019882;28;19948;-71
2024/01/27 06:12:58;;;;;;;;;;;0.50;99.90;;;;;;5010291;28;20294;-71
2024/01/27 06:15:25;;;;;;;;;;;0.50;99.90;;;;;;5021095;28;19988;-69
2024/01/27 06:17:51;;;;;;;;;;;0.50;99.90;;;;;;5021983;28;20174;-71
2024/01/27 06:20:18;;;;;;;;;;;0.50;99.90;;;;;;5021389;28;19936;-70
2024/01/27 06:22:45;;;;;;;;;;;0.50;99.90;;;;;;5021862;28;19921;-72
2024/01/27 06:25:13;;;;;;;;;;;0.50;99.90;;;;;;5022268;28;19960;-71
2024/01/27 06:27:41;;;;;;;;;;;0.40;99.90;;;;;;5021244;28;20350;-71
2024/01/27 06:30:09;;;;;;;;;;;0.40;99.90;;;;;;5021512;28;19929;-70
2024/01/27 06:32:36;;;;;;;;;;;0.40;99.90;;;;;;5021121;28;19951;-71
2024/01/27 06:35:03;;;;;;;;;;;0.50;99.90;;;;;;5021611;28;19929;-72
2024/01/27 06:37:30;;;;;;;;;;;0.40;99.90;;;;;;5020999;28;19968;-70
2024/01/27 06:39:57;;;;;;;;;;;0.40;99.90;;;;;;5021777;28;19921;-70
2024/01/27 06:42:25;;;;;;;;;;;0.40;99.90;;;;;;5008225;28;19988;-70
2024/01/27 06:44:51;;;;;;;;;;;0.50;99.90;;;;;;5015839;28;19922;-71
2024/01/27 06:47:18;;;;;;;;;;;0.50;99.90;;;;;;5021812;28;19984;-71
2024/01/27 06:49:44;;;;;;;;;;;0.50;99.90;;;;;;5021901;28;19984;-71
2024/01/27 06:52:12;;;;;;;;;;;0.50;99.90;;;;;;5009152;28;19949;-69
2024/01/27 06:54:43;;;;;;;;;;;0.50;99.90;;;;;;5006180;28;19949;-71
2024/01/27 06:57:18;;;;;;;;;;;0.40;99.90;;;;;;5005552;28;19922;-71
2024/01/27 06:59:46;;;;;;;;;;;0.30;99.90;;;;;;5010622;28;21966;-70
2024/01/27 07:02:14;;;;;;;;;;;0.30;99.90;;;;;;5009410;28;20001;-70
2024/01/27 07:04:40;;;;;;;;;;;0.30;99.90;;;;;;5006595;28;20863;-69
2024/01/27 07:07:07;;;;;;;;;;;0.30;99.90;;;;;;5011203;28;19984;-70
2024/01/27 07:09:33;;;;;;;;;;;0.30;99.90;;;;;;5009835;28;20107;-69
2024/01/27 07:12:00;;;;;;;;;;;0.20;99.90;;;;;;5011769;28;19949;-69
2024/01/27 07:14:27;;;;;;;;;;;0.20;99.90;;;;;;5018375;28;19921;-70
2024/01/27 07:16:55;;;;;;;;;;;0.30;99.90;;;;;;5005179;28;19992;-69
2024/01/27 07:19:21;;;;;;;;;;;0.20;99.90;;;;;;5015367;28;19963;-70
2024/01/27 07:21:48;;;;;;;;;;;0.20;99.90;;;;;;5011217;28;20004;-69
2024/01/27 07:24:14;;;;;;;;;;;0.30;99.90;;;;;;5014357;28;19992;-69
2024/01/27 07:26:41;;;;;;;;;;;0.20;99.90;;;;;;5009081;28;19949;-69
2024/01/27 07:29:08;;;;;;;;;;;0.10;99.90;;;;;;5016737;28;19953;-71
2024/01/27 07:31:35;;;;;;;;;;;0.10;99.90;;;;;;5022874;28;19921;-74
2024/01/27 07:34:03;;;;;;;;;;;0.00;99.90;;;;;;5027717;28;20266;-69
2024/01/27 07:36:32;;;;;;;;;;;0.00;99.90;;;;;;5012258;28;20234;-69
2024/01/27 07:38:58;;;;;;;;;;;0.00;99.90;;;;;;5023380;28;19929;-69
2024/01/27 07:41:25;;;;;;;;;;;0.00;99.90;;;;;;5017962;28;19921;-69
2024/01/27 07:43:52;;;;;;;;;;;0.10;99.90;;;;;;5014875;28;19994;-69
2024/01/27 07:46:21;;;;;;;;;;;0.10;99.90;;;;;;5016888;28;19921;-69
2024/01/27 07:48:48;;;;;;;;;;;0.10;99.90;;;;;;5009572;28;20174;-71
2024/01/27 07:51:16;;;;;;;;;;;0.10;99.90;;;;;;5015132;28;19984;-69
2024/01/27 07:53:43;;;;;;;;;;;0.10;99.90;;;;;;5025354;28;19941;-69
2024/01/27 07:56:10;;;;;;;;;;;0.20;99.90;;;;;;5007473;28;19921;-69
2024/01/27 07:58:36;;;;;;;;;;;0.20;99.90;;;;;;5022106;28;19929;-69
2024/01/27 08:01:03;;;;;;;;;;;0.30;99.90;;;;;;5015182;28;19921;-70
2024/01/27 08:03:30;;;;;;;;;;;0.30;99.90;;;;;;5011069;28;19957;-70
2024/01/27 08:05:56;;;;;;;;;;;0.30;99.90;;;;;;5014240;28;20111;-69
2024/01/27 08:08:24;;;;;;;;;;;0.40;99.90;;;;;;5011546;28;19922;-69
2024/01/27 08:10:51;;;;;;;;;;;0.40;99.90;;;;;;5012309;28;19935;-70
2024/01/27 08:13:18;;;;;;;;;;;0.40;99.90;;;;;;5013149;28;20004;-69
2024/01/27 08:15:44;;;;;;;;;;;0.40;99.90;;;;;;5011777;28;19929;-69
2024/01/27 08:18:11;;;;;;;;;;;0.40;99.90;;;;;;5014363;28;20380;-69
2024/01/27 08:20:38;;;;;;;;;;;0.40;99.90;;;;;;5012450;28;19930;-69
2024/01/27 08:23:05;;;;;;;;;;;0.50;99.90;;;;;;5013943;28;19921;-70
2024/01/27 08:25:33;;;;;;;;;;;0.50;99.90;;;;;;5013171;28;19921;-70
2024/01/27 08:28:00;;;;;;;;;;;0.50;99.90;;;;;;5018776;28;19975;-70
2024/01/27 08:30:26;;;;;;;;;;;0.60;99.90;;;;;;5017314;28;20211;-69
2024/01/27 08:32:53;;;;;;;;;;;0.60;99.90;;;;;;5024969;28;19993;-68
2024/01/27 08:35:19;;;;;;;;;;;0.60;99.90;;;;;;5022028;28;19944;-70
2024/01/27 08:37:46;;;;;;;;;;;0.70;99.90;;;;;;5013320;28;20114;-69
2024/01/27 08:40:13;;;;;;;;;;;0.80;99.90;;;;;;5016539;28;19996;-69
2024/01/27 08:42:41;;;;;;;;;;;0.90;99.90;;;;;;5023921;28;19922;-70
2024/01/27 08:45:08;;;;;;;;;;;1.00;99.90;;;;;;5029459;28;19922;-69
2024/01/27 08:47:35;;;;;;;;;;;0.90;99.90;;;;;;5009220;28;19928;-70
2024/01/27 08:50:02;;;;;;;;;;;1.00;99.90;;;;;;5011603;28;19922;-70
2024/01/27 08:52:29;;;;;;;;;;;1.10;99.90;;;;;;5015694;28;19949;-70
2024/01/27 08:54:55;;;;;;;;;;;1.20;99.90;;;;;;5025496;28;20008;-69
2024/01/27 08:57:22;;;;;;;;;;;1.20;99.90;;;;;;5008468;28;19928;-69
2024/01/27 08:59:50;;;;;;;;;;;1.30;99.90;;;;;;5027358;28;19921;-71
2024/01/27 09:02:16;;;;;;;;;;;1.30;99.90;;;;;;5011457;28;20143;-70
2024/01/27 09:04:43;;;;;;;;;;;1.40;99.90;;;;;;5015901;28;19930;-69
2024/01/27 09:07:10;;;;;;;;;;;1.40;99.90;;;;;;5013296;28;19935;-68
2024/01/27 09:09:38;;;;;;;;;;;1.50;99.90;;;;;;5011803;28;19921;-69
2024/01/27 09:12:04;;;;;;;;;;;1.50;99.90;;;;;;5010539;28;20398;-71
2024/01/27 09:14:33;;;;;;;;;;;1.60;99.90;;;;;;5016436;28;19944;-69
2024/01/27 09:17:01;;;;;;;;;;;1.70;99.90;;;;;;5015402;28;19922;-70
2024/01/27 09:19:28;;;;;;;;;;;1.70;99.90;;;;;;5015806;28;19921;-69
2024/01/27 09:21:55;;;;;;;;;;;1.70;99.90;;;;;;5019612;28;19984;-72
2024/01/27 09:24:22;;;;;;;;;;;1.70;99.90;;;;;;5009895;28;19971;-70
2024/01/27 09:26:48;;;;;;;;;;;1.70;99.90;;;;;;5021161;28;19969;-72
2024/01/27 09:29:15;;;;;;;;;;;1.70;99.90;;;;;;5016022;28;20275;-70
2024/01/27 09:31:42;;;;;;;;;;;1.80;99.90;;;;;;5016232;28;19984;-72
2024/01/27 09:34:10;;;;;;;;;;;1.80;99.90;;;;;;5021126;28;19960;-70
2024/01/27 09:36:36;;;;;;;;;;;1.90;99.90;;;;;;5024091;28;20389;-70
2024/01/27 09:39:03;;;;;;;;;;;1.90;99.90;;;;;;5020307;28;19921;-70
2024/01/27 09:41:31;;;;;;;;;;;2.00;99.90;;;;;;5022622;28;19921;-74
2024/01/27 09:44:00;;;;;;;;;;;2.00;99.90;;;;;;5017788;28;19922;-73
2024/01/27 09:46:27;;;;;;;;;;;2.10;99.90;;;;;;5022254;28;19953;-70
2024/01/27 09:48:54;;;;;;;;;;;2.20;99.90;;;;;;5019509;28;20269;-70
2024/01/27 09:51:22;;;;;;;;;;;2.30;99.90;;;;;;5011955;28;19925;-72
2024/01/27 09:53:50;;;;;;;;;;;2.30;99.90;;;;;;5016908;28;19925;-73
2024/01/27 09:56:18;;;;;;;;;;;2.30;99.90;;;;;;5011066;28;19980;-71
2024/01/27 09:58:44;;;;;;;;;;;2.40;99.90;;;;;;5014657;28;19960;-72
2024/01/27 10:01:12;;;;;;;;;;;2.50;99.90;;;;;;5011983;28;19989;-71
2024/01/27 10:03:39;;;;;;;;;;;2.60;99.90;;;;;;5010238;28;19929;-70
2024/01/27 10:06:08;;;;;;;;;;;2.70;99.90;;;;;;5015871;28;19957;-72
2024/01/27 10:08:36;;;;;;;;;;;2.80;99.90;;;;;;5013540;28;19956;-72
2024/01/27 10:11:07;;;;;;;;;;;2.90;99.90;;;;;;5010639;28;19922;-72
2024/01/27 10:13:34;;;;;;;;;;;3.00;99.90;;;;;;5010526;28;20214;-71
2024/01/27 10:16:01;;;;;;;;;;;3.10;99.90;;;;;;5010959;28;19981;-73
2024/01/27 10:18:28;;;;;;;;;;;3.10;99.90;;;;;;5011767;28;19922;-71
2024/01/27 10:20:55;;;;;;;;;;;3.20;99.90;;;;;;5005116;28;19992;-71
2024/01/27 10:23:21;;;;;;;;;;;3.30;99.90;;;;;;5006035;28;19985;-72
2024/01/27 10:25:50;;;;;;;;;;;3.30;99.90;;;;;;5004454;28;19922;-70
2024/01/27 10:28:17;;;;;;;;;;;3.40;99.90;;;;;;5005388;28;19985;-73
2024/01/27 10:30:43;;;;;;;;;;;3.50;99.90;;;;;;5007930;28;19930;-72
2024/01/27 10:33:10;;;;;;;;;;;3.50;99.90;;;;;;5009760;28;19968;-72
2024/01/27 10:35:37;;;;;;;;;;;3.70;99.90;;;;;;5007621;28;19934;-70
2024/01/27 10:38:04;;;;;;;;;;;3.80;99.90;;;;;;5010682;28;19953;-75
2024/01/27 10:40:30;;;;;;;;;;;3.90;99.90;;;;;;5009903;28;19993;-74
2024/01/27 10:43:03;;;;;;;;;;;4.00;99.90;;;;;;5007132;28;19929;-72
2024/01/27 10:45:30;;;;;;;;;;;4.10;99.90;;;;;;5011744;28;19921;-72
2024/01/27 10:48:00;;;;;;;;;;;4.20;99.90;;;;;;5014461;28;19972;-73
2024/01/27 10:50:27;;;;;;;;;;;4.30;99.90;;;;;;5009626;28;19949;-74
2024/01/27 10:52:55;;;;;;;;;;;4.40;99.90;;;;;;5014045;28;19956;-72
2024/01/27 10:55:22;;;;;;;;;;;4.50;99.90;;;;;;5013385;28;19953;-72
2024/01/27 10:57:49;;;;;;;;;;;4.60;99.90;;;;;;5014319;28;20208;-71
2024/01/27 11:00:18;;;;;;;;;;;4.80;99.90;;;;;;5020223;28;19984;-74
2024/01/27 11:02:45;;;;;;;;;;;4.90;99.90;;;;;;5012697;28;19933;-72
2024/01/27 11:05:14;;;;;;;;;;;5.00;99.90;;;;;;5029190;28;20169;-73
2024/01/27 11:07:42;;;;;;;;;;;5.10;99.90;;;;;;5009266;28;19952;-71
2024/01/27 11:10:09;;;;;;;;;;;5.20;99.90;;;;;;5022734;28;20159;-71
2024/01/27 11:12:36;;;;;;;;;;;5.30;99.90;;;;;;5030446;28;19952;-76
2024/01/27 11:15:03;;;;;;;;;;;5.40;99.90;;;;;;5026798;28;19957;-72
2024/01/27 11:17:38;;;;;;;;;;;5.50;99.90;;;;;;5019795;28;19972;-70
2024/01/27 11:20:06;;;;;;;;;;;5.70;99.90;;;;;;5017595;28;19997;-71
2024/01/27 11:22:33;;;;;;;;;;;5.70;99.90;;;;;;5021255;28;19922;-72
2024/01/27 11:25:08;;;;;;;;;;;5.70;99.90;;;;;;5013904;28;19921;-70
2024/01/27 11:27:35;;;;;;;;;;;5.80;99.90;;;;;;5014049;28;19929;-71
2024/01/27 11:30:02;;;;;;;;;;;5.70;99.90;;;;;;5012907;28;19922;-71
2024/01/27 11:32:29;;;;;;;;;;;5.80;99.90;;;;;;5017455;28;19925;-71
2024/01/27 11:34:57;;;;;;;;;;;5.90;99.90;;;;;;5018608;28;19992;-73
2024/01/27 11:37:24;;;;;;;;;;;5.90;99.90;;;;;;5022551;28;19922;-71
2024/01/27 11:39:51;;;;;;;;;;;6.20;99.90;;;;;;5019486;28;19921;-71
2024/01/27 11:42:18;;;;;;;;;;;6.30;99.90;;;;;;5020322;28;19997;-71
2024/01/27 11:44:45;;;;;;;;;;;6.40;99.90;;;;;;5016453;28;19929;-71
2024/01/27 11:47:16;;;;;;;;;;;6.50;99.90;;;;;;5022337;28;19926;-73
2024/01/27 11:49:43;;;;;;;;;;;6.60;99.90;;;;;;5016507;28;19921;-73
2024/01/27 11:52:11;;;;;;;;;;;6.70;99.90;;;;;;5016725;28;19957;-72
2024/01/27 11:54:38;;;;;;;;;;;6.70;99.90;;;;;;5010185;28;19970;-74
2024/01/27 11:57:05;;;;;;;;;;;6.70;99.90;;;;;;5016392;28;19928;-71
2024/01/27 11:59:31;;;;;;;;;;;6.80;99.90;;;;;;5023478;28;19984;-71
2024/01/27 12:01:58;;;;;;;;;;;6.90;99.90;;;;;;5023729;28;19949;-71
2024/01/27 12:04:25;;;;;;;;;;;7.00;99.90;;;;;;5020687;28;20229;-73
2024/01/27 12:06:51;;;;;;;;;;;7.10;99.90;;;;;;5023582;28;19928;-71
2024/01/27 12:09:19;;;;;;;;;;;7.10;99.90;;;;;;5023733;28;19989;-71
2024/01/27 12:11:46;;;;;;;;;;;7.20;99.90;;;;;;5018851;28;19980;-71
2024/01/27 12:14:13;;;;;;;;;;;7.20;99.90;;;;;;5012818;28;19921;-71
2024/01/27 12:16:40;;;;;;;;;;;7.20;99.90;;;;;;5019114;28;19921;-71
2024/01/27 12:19:06;;;;;;;;;;;7.20;99.90;;;;;;5011640;28;19960;-71
2024/01/27 12:21:33;;;;;;;;;;;7.20;99.90;;;;;;5016136;28;19921;-72
2024/01/27 12:24:00;;;;;;;;;;;7.20;99.90;;;;;;5018592;28;19989;-71
2024/01/27 12:26:30;;;;;;;;;;;7.20;99.90;;;;;;5025038;28;20173;-71
2024/01/27 12:28:57;;;;;;;;;;;7.20;99.90;;;;;;5020231;28;19957;-71
2024/01/27 12:31:24;;;;;;;;;;;7.30;99.90;;;;;;5033450;28;20149;-71
2024/01/27 12:33:51;;;;;;;;;;;7.40;99.90;;;;;;5013625;28;19988;-72
2024/01/27 12:36:18;;;;;;;;;;;7.60;99.90;;;;;;5023939;28;19928;-73
2024/01/27 12:38:50;;;;;;;;;;;7.70;99.90;;;;;;5012132;28;19921;-71
2024/01/27 12:41:16;;;;;;;;;;;7.80;99.90;;;;;;5010638;28;19922;-72
2024/01/27 12:43:44;;;;;;;;;;;7.90;99.90;;;;;;5009621;28;19929;-72
2024/01/27 12:46:12;;;;;;;;;;;7.80;99.90;;;;;;5013415;28;19921;-71
2024/01/27 12:48:39;;;;;;;;;;;7.80;99.90;;;;;;5010421;28;19963;-76
2024/01/27 12:51:05;;;;;;;;;;;8.00;99.90;;;;;;5013157;28;20119;-73
2024/01/27 12:53:32;;;;;;;;;;;8.20;99.90;;;;;;5019491;28;21701;-80
2024/01/27 12:55:58;;;;;;;;;;;8.30;99.90;;;;;;5017216;28;20210;-70
2024/01/27 12:58:28;;;;;;;;;;;8.30;99.90;;;;;;5026327;28;19968;-77
2024/01/27 13:00:56;;;;;;;;;;;8.40;99.90;;;;;;5010058;28;19979;-72
2024/01/27 13:03:23;;;;;;;;;;;8.50;99.90;;;;;;5015998;28;19922;-71
2024/01/27 13:05:50;;;;;;;;;;;8.60;99.90;;;;;;5019853;28;19922;-70
2024/01/27 13:08:16;;;;;;;;;;;8.70;99.90;;;;;;5006271;28;19988;-71
2024/01/27 13:10:43;;;;;;;;;;;8.70;99.90;;;;;;5020834;28;19972;-71
2024/01/27 13:13:10;;;;;;;;;;;8.80;99.90;;;;;;5006046;28;19964;-71
2024/01/27 13:15:36;;;;;;;;;;;8.80;99.90;;;;;;5021413;28;19988;-72
2024/01/27 13:18:04;;;;;;;;;;;8.80;99.90;;;;;;5017947;28;20290;-71
2024/01/27 13:20:31;;;;;;;;;;;8.70;99.90;;;;;;5021569;28;20008;-71
2024/01/27 13:22:58;;;;;;;;;;;8.80;99.90;;;;;;5022126;28;20295;-71
2024/01/27 13:25:25;;;;;;;;;;;8.80;99.90;;;;;;5015339;28;19949;-70
2024/01/27 13:27:51;;;;;;;;;;;8.40;99.90;;;;;;5006163;28;20026;-71
2024/01/27 13:30:18;;;;;;;;;;;8.50;99.90;;;;;;5012069;28;20258;-71
2024/01/27 13:32:45;;;;;;;;;;;8.80;99.90;;;;;;5021920;28;19927;-70
2024/01/27 13:35:13;;;;;;;;;;;9.10;99.90;;;;;;5022046;28;19964;-71
2024/01/27 13:37:39;;;;;;;;;;;9.30;99.90;;;;;;5022889;28;19970;-70
2024/01/27 13:40:07;;;;;;;;;;;9.50;99.90;;;;;;5016820;28;19981;-71
2024/01/27 13:42:34;;;;;;;;;;;9.70;99.90;;;;;;5020835;28;19952;-71
2024/01/27 13:45:01;;;;;;;;;;;10.00;99.90;;;;;;5022652;28;19921;-71
2024/01/27 13:47:28;;;;;;;;;;;10.10;99.90;;;;;;5021389;28;19960;-72
2024/01/27 13:49:54;;;;;;;;;;;10.10;99.90;;;;;;5022140;28;20048;-71
2024/01/27 13:52:22;;;;;;;;;;;10.10;99.90;;;;;;5021240;28;19989;-71
2024/01/27 13:54:49;;;;;;;;;;;10.20;99.90;;;;;;5012700;28;19957;-72
2024/01/27 13:57:16;;;;;;;;;;;10.40;99.90;;;;;;5012118;28;19952;-71
2024/01/27 13:59:43;;;;;;;;;;;10.50;99.90;;;;;;5006312;28;19960;-71
2024/01/27 14:02:09;;;;;;;;;;;10.50;99.90;;;;;;5018398;28;19967;-71
2024/01/27 14:04:36;;;;;;;;;;;10.40;99.90;;;;;;5020957;28;19989;-71
2024/01/27 14:07:06;;;;;;;;;;;10.40;99.90;;;;;;5022055;28;20155;-71
2024/01/27 14:09:34;;;;;;;;;;;10.30;99.90;;;;;;5020200;28;19928;-71
2024/01/27 14:12:01;;;;;;;;;;;10.20;99.90;;;;;;5010587;28;19921;-71
2024/01/27 14:14:27;;;;;;;;;;;10.00;99.90;;;;;;5021712;28;19921;-71
2024/01/27 14:16:54;;;;;;;;;;;9.80;99.90;;;;;;5022074;28;19921;-70
2024/01/27 14:19:21;;;;;;;;;;;9.60;99.90;;;;;;5021231;28;19921;-71
2024/01/27 14:21:47;;;;;;;;;;;9.30;99.90;;;;;;5021691;28;19961;-71
2024/01/27 14:24:14;;;;;;;;;;;9.10;99.90;;;;;;5021813;28;20122;-71
2024/01/27 14:26:42;;;;;;;;;;;8.80;99.90;;;;;;5022752;28;19953;-71